Carson Valley, Nevada Weather observations

Data are for 10 minute period ending at time listed.
 Day   Time   Solar   Ave.   Ave.  Ave.  Vector  Max.   Baro.   Total    
  of    of     Rad.   Air    Rel.  Wind   Wind   Wind  Press.  Precip.   
Year   Day            Temp.  Hum.  Speed  Dir.   Gust                    
2015   (PST)  Kw/m2    F      %     mph   deg.    mph    mb.     in.     
-------------------------------------------------------------------------
  27    2:50   0.00   35.8    70    1.4   133     3.4   857.2    0.00 
  27    3:00   0.00   35.7    70    2.3   295     5.0   857.2    0.00 
  27    3:10   0.00   34.9    73    1.7   306     5.0   857.1    0.00 
  27    3:20   0.00   35.0    73    2.3   203     7.3   857.1    0.00 
  27    3:30   0.00   34.9    73    3.5    97     6.1   857.1    0.00 
  27    3:40   0.00   34.9    73    2.3    46     4.6   857.0    0.00 
  27    3:50   0.00   35.3    72    2.5   348     5.8   856.9    0.00 
  27    4:00   0.00   35.0    74    2.8     5     5.4   857.0    0.00 
  27    4:10   0.00   35.1    73    3.9    98     6.6   857.1    0.00 
  27    4:20   0.00   35.6    71    3.3   109     5.6   857.1    0.00 
  27    4:30   0.00   36.3    69    3.5   104     7.7   857.2    0.00 
  27    4:40   0.00   36.3    69    4.7    78     6.8   857.2    0.00 
  27    4:50   0.00   36.0    70    5.9    98    10.7   857.1    0.00 
  27    5:00   0.00   36.7    68    3.8   131    12.5   857.2    0.00 
  27    5:10   0.00   39.0    61    4.6     2    12.7   857.1    0.00 
  27    5:20   0.00   39.2    61    2.9    78     5.3   857.2    0.00 
  27    5:30   0.00   39.6    60    4.3   127     7.9   857.2    0.00 
  27    5:40   0.00   39.7    60    4.2   154     7.2   857.2    0.00 
  27    5:50   0.00   39.6    62    2.7   179     5.6   857.5    0.00 
  27    6:00   0.00   38.9    64    2.2   202     5.3   857.7    0.00 
  27    6:10   0.00   38.5    65    2.9    87     6.8   857.8    0.00 
  27    6:20   0.00   38.8    64    7.0   225     9.9   857.9    0.00 
  27    6:30   0.00   39.9    61    5.6   183    10.1   858.0    0.00 
  27    6:40   0.00   42.7    53    5.7   211    11.2   858.3    0.00 
  27    6:50   0.00   41.8    57    5.8   248     8.1   858.5    0.00 
  27    7:00   0.00   43.8    52    8.4   231    11.3   858.6    0.00 
  27    7:10   0.00   44.1    54    6.8   211    10.9   858.8    0.00 
  27    7:20   0.00   43.8    63    7.1   207    11.5   859.0    0.00 
  27    7:30   0.00   45.3    65    6.6   257    10.4   859.1    0.00 
  27    7:40   0.00   45.7    65    7.8   273    13.5   859.2    0.00 
  27    7:50   0.01   44.9    67    6.5   208    11.4   859.4    0.00 
  27    8:00   0.01   43.8    73    4.9   135     7.7   859.6    0.00 
  27    8:10   0.01   42.9    78    3.3   191     6.1   859.8    0.00 
  27    8:20   0.01   42.8    79    3.5   174     5.6   859.9    0.01 
  27    8:30   0.02   42.6    81    3.1   172     4.6   860.0    0.00 
  27    8:40   0.02   42.3    82    3.5   173     5.3   860.1    0.00 
  27    8:50   0.03   42.4    82    2.3   121     6.5   860.1    0.00 
  27    9:00   0.04   42.7    82    2.8   179     5.6   860.3    0.00 
  27    9:10   0.04   42.9    82    2.5   132     5.8   860.4    0.00 
  27    9:20   0.05   43.1    81    1.4   192     5.4   860.5    0.00 
  27    9:30   0.06   43.6    78    2.5   323     6.3   860.6    0.00 
  27    9:40   0.07   43.8    78    3.1   130     7.1   860.6    0.00 
  27    9:50   0.09   43.4    83    2.2   119     3.7   860.8    0.00 
  27   10:00   0.07   43.8    80    0.5   256     1.5   861.0    0.00 
  27   10:10   0.06   44.2    78    2.9   216     6.7   861.1    0.00 
  27   10:20   0.06   44.2    80    2.2   182     4.1   861.2    0.00 
  27   10:30   0.06   44.0    81    1.1    89     3.0   861.4    0.00 
  27   10:40   0.08   44.1    83    4.0   117     7.2   861.4    0.00 
  27   10:50   0.11   44.4    76    2.0   147     6.1   861.4    0.00 
  27   11:00   0.13   44.7    75    2.5   329     4.7   861.4    0.00 
  27   11:10   0.13   44.9    72    2.8   291     6.6   861.5    0.00 
  27   11:20   0.12   45.0    71    5.4   224     9.6   861.4    0.00 
  27   11:30   0.12   44.8    76    5.5   203    10.2   861.4    0.00 
  27   11:40   0.13   44.8    70    5.6   228    11.7   861.5    0.00 
  27   11:50   0.15   44.8    70    6.6   221    10.2   861.4    0.00 
  27   12:00   0.17   44.8    71    7.4   221    11.8   861.3    0.00 
  27   12:10   0.17   44.7    72   10.8   222    15.8   861.2    0.00 
  27   12:20   0.17   44.7    69    9.5   219    17.1   861.2    0.00 
  27   12:30   0.17   45.1    71    5.7   188    17.7   861.2    0.00 
  27   12:40   0.18   45.2    74    7.8   185    14.4   861.2    0.00 
  27   12:50   0.20   45.7    64    4.7   209    12.6   861.1    0.00 
  27   13:00   0.21   46.2    67    3.8   186     8.3   861.1    0.00 
  27   13:10   0.21   46.3    64    3.2   166    10.5   861.1    0.00 
  27   13:20   0.17   46.5    65    4.0   186     8.0   861.0    0.00 
  27   13:30   0.13   45.5    67    9.3   238    14.8   861.1    0.00 
  27   13:40   0.12   44.9    71    7.8   229    14.6   861.2    0.00 
  27   13:50   0.11   45.2    71    4.7   199     8.0   861.2    0.00 
  27   14:00   0.11   45.0    67    8.4   217    13.1   861.3    0.00 
  27   14:10   0.12   44.8    65    6.9   226    11.2   861.3    0.00 
  27   14:20   0.12   45.2    63    8.9   223    17.8   861.3    0.00 
  27   14:30   0.12   45.1    64    9.5   235    19.3   861.3    0.00 
  27   14:40   0.12   45.4    62   11.2   219    18.0   861.4    0.00 
  27   14:50   0.13   45.9    60   10.3   211    24.1   861.3    0.00 
  27   15:00   0.11   46.1    57    8.4   250    16.7   861.3    0.00 
  27   15:10   0.12   46.3    55   12.0   238    26.3   861.3    0.00 
  27   15:20   0.16   46.4    56   12.1   245    23.2   861.3    0.00 
  27   15:30   0.15   46.6    53   14.9   252    23.1   861.3    0.00 
  27   15:40   0.12   46.4    56   10.6   236    16.8   861.3    0.00 
  27   15:50   0.10   46.5    55   10.7   243    17.2   861.3    0.00 
  27   16:00   0.10   46.5    61    9.1   228    14.5   861.4    0.00 
  27   16:10   0.10   46.7    64    7.2   188    10.4   861.5    0.00 
  27   16:20   0.07   46.0    66    6.0   174    14.2   861.7    0.00 
  27   16:30   0.05   46.5    57    6.3   194    16.1   861.6    0.00 
  27   16:40   0.04   46.2    59    6.5   194    11.7   861.5    0.00 
  27   16:50   0.03   45.4    58    7.6   207    13.2   861.5    0.00 
  27   17:00   0.02   45.8    54    6.8   220    14.0   861.6    0.00 
  27   17:10   0.01   44.9    62    8.4   208    13.7   861.7    0.00 
  27   17:20   0.00   44.9    56    8.1   216    17.1   861.7    0.00 
  27   17:30   0.00   45.8    53    3.5   244     7.8   861.7    0.00 
  27   17:40   0.00   45.0    53    2.0   177     5.1   861.7    0.00 
  27   17:50   0.00   44.0    59    2.0    57     5.8   861.8    0.00 
  27   18:00   0.00   41.9    70    3.3    47     6.0   861.8    0.00 
  27   18:10   0.00   41.9    67    2.5   103     5.6   861.9    0.00 
  27   18:20   0.00   42.1    65    2.7   349     5.5   862.0    0.00 
  27   18:30   0.00   41.5    67    0.9    69     1.9   862.0    0.00 
  27   18:40   0.00   40.7    68    1.5   106     3.7   862.0    0.00 
  27   18:50   0.00   40.9    65    1.3   111     2.9   862.1    0.00 
  27   19:00   0.00   41.2    68    4.9   191    11.1   862.1    0.00 
  27   19:10   0.00   41.8    70    3.8   206     8.0   862.2    0.00 
  27   19:20   0.00   41.3    73    5.7   183     8.2   862.3    0.00 
  27   19:30   0.00   40.7    76    5.5   165     7.7   862.3    0.00 
  27   19:40   0.00   39.7    78    4.3   142     5.2   862.3    0.00 
  27   19:50   0.00   38.7    81    3.4   144     5.2   862.4    0.00 
  27   20:00   0.00   38.2    83    1.9   254     5.1   862.5    0.00 
  27   20:10   0.00   38.6    82    1.2   142     2.5   862.6    0.00 
  27   20:20   0.00   37.4    82    2.1    92     5.3   862.7    0.00 
  27   20:30   0.00   37.7    85    4.2    88     5.6   862.8    0.00 
  27   20:40   0.00   37.1    84    2.3   244     4.0   862.9    0.00 
  27   20:50   0.00   35.5    86    3.8   301     5.3   863.0    0.00 
  27   21:00   0.00   36.0    87    3.2   321     4.4   863.2    0.00 
  27   21:10   0.00   36.1    86    2.6   325     3.2   863.2    0.00 
  27   21:20   0.00   36.2    85    1.5   331     2.8   863.3    0.00 
  27   21:30   0.00   37.0    85    3.6   295     4.5   863.3    0.00 
  27   21:40   0.00   36.4    84    2.1   300     3.4   863.4    0.00 
  27   21:50   0.00   36.6    85    0.8    10     2.0   863.4    0.00 
  27   22:00   0.00   36.5    85    1.2    59     1.8   863.4    0.00 
  27   22:10   0.00   36.0    86    1.1   274     2.3   863.3    0.00 
  27   22:20   0.00   36.1    87    1.2   308     2.0   863.3    0.00 
  27   22:30   0.00   35.8    86    1.0    91     3.1   863.4    0.00 
  27   22:40   0.00   33.8    87    2.6    98     3.3   863.4    0.00 
  27   22:50   0.00   32.5    89    2.5   111     3.7   863.5    0.00 
  27   23:00   0.00   32.1    91    3.8    92     4.5   863.5    0.00 
  27   23:10   0.00   32.3    91    1.6   127     3.5   863.6    0.00 
  27   23:20   0.00   31.8    92    0.8   202     2.0   863.7    0.00 
  27   23:30   0.00   31.9    92    1.9   187     3.8   863.7    0.00 
  27   23:40   0.00   32.1    93    2.0   203     3.1   863.8    0.00 
  27   23:50   0.00   31.3    93    2.0   198     2.6   863.7    0.00 
  28    0:00   0.00   29.1    93    0.8   183     1.6   863.7    0.00 
  28    0:10   0.00   28.2    94    2.2    58     5.3   863.7    0.00 
  28    0:20   0.00   26.5    95    2.0    89     3.9   863.7    0.00 
  28    0:30   0.00   27.7    97    3.9    95     4.8   863.8    0.00 
  28    0:40   0.00   26.4    96    2.2    88     5.1   863.7    0.00 
  28    0:50   0.00   26.5    97    3.0    76     5.6   863.8    0.00 
  28    1:00   0.00   25.8    98    2.8   268     6.0   863.9    0.00 
  28    1:10   0.00   24.4    99    2.8   285     3.5   863.9    0.00 
  28    1:20   0.00   24.5    99    1.5   347     4.2   863.9    0.00 
  28    1:30   0.00   26.1   100    2.0    29     5.0   863.9    0.00 
  28    1:40   0.00   24.0    99    2.7    52     4.5   863.8    0.00 
  28    1:50   0.00   25.5   100    3.1   344     3.8   863.8    0.00 
  28    2:00   0.00   24.9   100    1.2   351     2.7   863.8    0.00 
  28    2:10   0.00   25.1   100    0.2   108     0.9   863.8    0.00 
  28    2:20   0.00   24.4    99    2.4   196     4.3   863.9    0.00 
  28    2:30   0.00   22.4    96    2.9   178     4.2   864.0    0.00 
  28    2:40   0.00   22.5    97    2.1   177     3.8   864.1    0.00 

Return to Carson Valley graphs page.


Western Regional Climate Center,wrcc@dri.edu